createdAt,value
2023-05-10T00:00:13.248Z,2.75
2023-05-10T00:01:17.097Z,2.75
2023-05-10T00:02:21.165Z,2.50
2023-05-10T00:03:25.148Z,1.75
2023-05-10T00:04:28.996Z,2.00
2023-05-10T00:05:33.096Z,2.50
2023-05-10T00:06:37.005Z,2.50
2023-05-10T00:07:41.302Z,3.00
2023-05-10T00:08:45.406Z,2.25
2023-05-10T00:09:49.407Z,2.00
2023-05-10T00:10:53.623Z,2.25
2023-05-10T00:11:57.533Z,3.00
2023-05-10T00:13:01.849Z,3.00
2023-05-10T00:14:05.825Z,2.25
2023-05-10T00:15:09.892Z,2.00
2023-05-10T00:16:13.850Z,1.00
2023-05-10T00:17:17.840Z,2.00
2023-05-10T00:18:22.040Z,2.50
2023-05-10T00:19:25.828Z,2.00
2023-05-10T00:20:30.041Z,2.00
2023-05-10T00:21:34.236Z,2.00
2023-05-10T00:22:38.283Z,2.50
2023-05-10T00:23:42.345Z,2.50
2023-05-10T00:24:46.447Z,1.50
2023-05-10T00:25:50.245Z,1.50
2023-05-10T00:26:54.146Z,1.50
2023-05-10T00:27:58.442Z,2.00
2023-05-10T00:29:02.641Z,2.00
2023-05-10T00:30:06.662Z,1.75
2023-05-10T00:31:10.870Z,2.00
2023-05-10T00:32:15.076Z,2.50
2023-05-10T00:33:19.173Z,2.25
2023-05-10T00:34:23.592Z,2.00
2023-05-10T00:35:27.685Z,2.00
2023-05-10T00:36:31.791Z,2.00
2023-05-10T00:37:36.114Z,2.00
2023-05-10T00:38:40.112Z,1.00
2023-05-10T00:39:44.293Z,2.00
2023-05-10T00:40:48.308Z,1.25
2023-05-10T00:41:52.313Z,2.50
2023-05-10T00:42:56.410Z,1.50
2023-05-10T00:44:00.154Z,0.50
2023-05-10T00:45:04.011Z,1.00
2023-05-10T00:46:07.848Z,1.00
2023-05-10T00:47:11.704Z,2.00
2023-05-10T00:48:15.377Z,1.50
2023-05-10T00:49:19.088Z,1.50
2023-05-10T00:50:23.101Z,1.75
2023-05-10T00:51:26.887Z,1.50
2023-05-10T00:52:30.697Z,0.75
2023-05-10T00:53:34.483Z,2.00
2023-05-10T00:54:38.167Z,1.50
2023-05-10T00:55:42.067Z,2.00
2023-05-10T00:56:45.872Z,2.50
2023-05-10T00:57:49.580Z,1.00
2023-05-10T00:58:53.293Z,2.00
2023-05-10T00:59:57.057Z,1.25
2023-05-10T01:01:00.880Z,1.50
2023-05-10T01:02:04.796Z,2.00
2023-05-10T01:03:08.671Z,2.00
2023-05-10T01:04:12.459Z,1.50
2023-05-10T01:05:16.410Z,1.50
2023-05-10T01:06:20.349Z,1.25
2023-05-10T01:07:24.041Z,0.00
2023-05-10T01:08:27.842Z,1.25
2023-05-10T01:09:31.638Z,1.25
2023-05-10T01:10:35.428Z,1.00
2023-05-10T01:11:39.445Z,1.00
2023-05-10T01:12:43.364Z,0.00
2023-05-10T01:13:47.232Z,1.00
2023-05-10T01:14:50.926Z,1.00
2023-05-10T01:15:54.795Z,1.25
2023-05-10T01:16:58.841Z,0.75
2023-05-10T01:18:02.652Z,1.00
2023-05-10T01:19:06.518Z,1.00
2023-05-10T01:20:10.416Z,1.50
2023-05-10T01:21:14.108Z,0.75
2023-05-10T01:22:18.021Z,0.75
2023-05-10T01:23:21.921Z,0.50
2023-05-10T01:24:25.700Z,1.00
2023-05-10T01:25:29.502Z,1.00
2023-05-10T01:26:33.256Z,0.50
2023-05-10T01:27:37.404Z,1.50
2023-05-10T01:28:41.109Z,1.00
2023-05-10T01:29:44.800Z,1.00
2023-05-10T01:30:48.607Z,0.25
2023-05-10T01:31:52.283Z,1.50
2023-05-10T01:32:56.343Z,0.50
2023-05-10T01:34:00.148Z,0.00
2023-05-10T01:35:03.879Z,0.00
2023-05-10T01:36:07.607Z,0.00
2023-05-10T01:37:11.359Z,0.00
2023-05-10T01:38:15.271Z,0.00
2023-05-10T01:39:19.078Z,0.00
2023-05-10T01:40:22.955Z,0.50
2023-05-10T01:41:26.860Z,1.00
2023-05-10T01:42:30.540Z,1.00
2023-05-10T01:43:34.652Z,0.50
2023-05-10T01:44:39.590Z,0.50
2023-05-10T01:45:43.672Z,-0.25
2023-05-10T01:46:47.828Z,0.25
2023-05-10T01:47:51.928Z,0.25
2023-05-10T01:48:55.978Z,0.00
2023-05-10T01:50:00.001Z,0.00
2023-05-10T01:51:03.678Z,0.00
2023-05-10T01:52:07.363Z,0.00
2023-05-10T01:53:11.079Z,0.50
2023-05-10T01:54:15.066Z,0.75
2023-05-10T01:55:18.591Z,0.25
2023-05-10T01:56:22.275Z,1.00
2023-05-10T01:57:25.945Z,0.25
2023-05-10T01:58:29.645Z,0.50
2023-05-10T01:59:33.532Z,0.50
2023-05-10T02:00:37.488Z,0.50
2023-05-10T02:01:41.324Z,0.50
2023-05-10T02:02:45.081Z,-0.25
2023-05-10T02:03:49.169Z,1.00
2023-05-10T02:04:53.257Z,0.75
2023-05-10T02:05:57.240Z,0.50
2023-05-10T02:07:01.334Z,0.00
2023-05-10T02:08:05.446Z,0.50
2023-05-10T02:09:09.433Z,0.50
2023-05-10T02:10:13.920Z,0.50
2023-05-10T02:11:18.059Z,0.00
2023-05-10T02:12:22.170Z,0.50
2023-05-10T02:13:26.303Z,1.00
2023-05-10T02:14:30.399Z,1.00
2023-05-10T02:15:34.482Z,0.25
2023-05-10T02:16:38.419Z,0.25
2023-05-10T02:17:42.340Z,0.25
2023-05-10T02:18:46.071Z,0.50
2023-05-10T02:19:49.868Z,0.25
2023-05-10T02:20:53.565Z,1.00
2023-05-10T02:21:57.265Z,1.00
2023-05-10T02:23:00.960Z,1.00
2023-05-10T02:24:04.641Z,0.25
2023-05-10T02:25:08.537Z,0.50
2023-05-10T02:26:12.304Z,1.50
2023-05-10T02:27:16.131Z,1.25
2023-05-10T02:28:19.848Z,0.75
2023-05-10T02:29:23.727Z,0.75
2023-05-10T02:30:27.514Z,0.25
2023-05-10T02:31:31.337Z,0.50
2023-05-10T02:32:35.240Z,1.00
2023-05-10T02:33:39.015Z,1.00
2023-05-10T02:34:42.815Z,0.50
2023-05-10T02:35:46.616Z,0.50
2023-05-10T02:36:50.396Z,0.25
2023-05-10T02:37:54.305Z,0.00
2023-05-10T02:38:58.203Z,0.00
2023-05-10T02:40:02.019Z,0.00
2023-05-10T02:41:05.897Z,1.00
2023-05-10T02:42:09.692Z,0.25
2023-05-10T02:43:13.397Z,0.25
2023-05-10T02:44:20.484Z,0.50
2023-05-10T02:45:24.869Z,0.50
2023-05-10T02:46:29.154Z,0.50
2023-05-10T02:47:33.340Z,1.00
2023-05-10T02:48:37.187Z,1.00
2023-05-10T02:49:41.077Z,0.25
2023-05-10T02:50:44.873Z,1.00
2023-05-10T02:51:48.670Z,0.75
2023-05-10T02:52:52.469Z,0.00
2023-05-10T02:53:56.370Z,0.00
2023-05-10T02:55:00.267Z,0.00
2023-05-10T02:56:03.959Z,0.00
2023-05-10T02:57:07.653Z,0.50
2023-05-10T02:58:11.450Z,0.50
2023-05-10T02:59:15.111Z,0.50
2023-05-10T03:00:18.950Z,0.50
2023-05-10T03:01:22.824Z,0.00
2023-05-10T03:02:26.645Z,0.25
2023-05-10T03:03:30.739Z,1.00
2023-05-10T03:04:35.022Z,0.50
2023-05-10T03:05:39.029Z,0.50
2023-05-10T03:06:43.053Z,1.00
2023-05-10T03:07:47.263Z,1.00
2023-05-10T03:08:51.366Z,0.25
2023-05-10T03:09:55.370Z,0.00
2023-05-10T03:10:59.271Z,0.00
2023-05-10T03:12:03.308Z,0.00
2023-05-10T03:13:07.495Z,0.00
2023-05-10T03:14:11.994Z,0.00
2023-05-10T03:15:15.879Z,0.00
2023-05-10T03:16:19.778Z,0.00
2023-05-10T03:17:24.188Z,0.00
2023-05-10T03:18:28.234Z,0.00
2023-05-10T03:19:32.288Z,0.00
2023-05-10T03:20:36.783Z,0.50
2023-05-10T03:21:41.312Z,0.25
2023-05-10T03:22:45.573Z,0.25
2023-05-10T03:23:49.817Z,0.50
2023-05-10T03:24:54.240Z,0.00
2023-05-10T03:25:58.433Z,0.00
2023-05-10T03:27:02.388Z,0.25
2023-05-10T03:28:06.534Z,0.50
2023-05-10T03:29:10.634Z,0.50
2023-05-10T03:30:15.021Z,0.50
2023-05-10T03:31:19.242Z,0.00
2023-05-10T03:32:23.249Z,0.00
2023-05-10T03:33:27.569Z,0.00
2023-05-10T03:34:31.769Z,0.50
2023-05-10T03:35:35.995Z,1.00
2023-05-10T03:36:39.853Z,0.25
2023-05-10T03:37:43.998Z,0.50
2023-05-10T03:38:48.503Z,0.50
2023-05-10T03:39:52.696Z,0.75
2023-05-10T03:40:56.917Z,0.50
2023-05-10T03:42:01.219Z,0.50
2023-05-10T03:43:05.314Z,0.25
2023-05-10T03:44:09.426Z,1.00
2023-05-10T03:45:13.596Z,0.50
2023-05-10T03:46:17.755Z,0.00
2023-05-10T03:47:21.644Z,0.50
2023-05-10T03:48:25.626Z,1.00
2023-05-10T03:49:30.042Z,0.50
2023-05-10T03:50:34.571Z,0.50
2023-05-10T03:51:38.765Z,0.50
2023-05-10T03:52:43.072Z,0.50
2023-05-10T03:53:47.068Z,0.00
2023-05-10T03:54:51.076Z,0.00
2023-05-10T03:55:55.373Z,0.50
2023-05-10T03:56:59.484Z,1.00
2023-05-10T03:58:03.405Z,1.00
2023-05-10T03:59:07.378Z,1.00
2023-05-10T04:00:11.682Z,1.00
2023-05-10T04:01:15.760Z,0.50
2023-05-10T04:02:20.055Z,0.00
2023-05-10T04:03:24.301Z,0.00
2023-05-10T04:04:28.408Z,0.00
2023-05-10T04:05:32.622Z,0.25
2023-05-10T04:06:37.078Z,0.00
2023-05-10T04:07:41.301Z,0.00
2023-05-10T04:08:45.430Z,0.00
2023-05-10T04:09:49.862Z,0.00
2023-05-10T04:10:54.360Z,0.00
2023-05-10T04:11:58.668Z,0.25
2023-05-10T04:13:03.012Z,0.00
2023-05-10T04:14:07.604Z,0.00
2023-05-10T04:15:12.216Z,0.00
2023-05-10T04:16:16.462Z,0.00
2023-05-10T04:17:20.835Z,0.75
2023-05-10T04:18:25.128Z,0.00
2023-05-10T04:19:29.436Z,0.50
2023-05-10T04:20:33.854Z,0.50
2023-05-10T04:21:38.123Z,0.25
2023-05-10T04:22:42.573Z,0.00
2023-05-10T04:23:46.753Z,0.50
2023-05-10T04:24:50.774Z,0.25
2023-05-10T04:25:54.985Z,1.00
2023-05-10T04:26:59.288Z,0.50
2023-05-10T04:28:03.611Z,0.00
2023-05-10T04:29:08.219Z,1.00
2023-05-10T04:30:12.619Z,0.25
2023-05-10T04:31:17.052Z,0.00
2023-05-10T04:32:21.527Z,0.50
2023-05-10T04:33:26.373Z,0.50
2023-05-10T04:34:30.599Z,0.00
2023-05-10T04:35:34.881Z,0.50
2023-05-10T04:36:39.110Z,0.50
2023-05-10T04:37:43.496Z,0.00
2023-05-10T04:38:47.910Z,0.00
2023-05-10T04:39:52.097Z,0.50
2023-05-10T04:40:56.418Z,0.00
2023-05-10T04:42:00.834Z,0.00
2023-05-10T04:43:05.241Z,0.25
2023-05-10T04:44:09.652Z,0.50
2023-05-10T04:45:13.861Z,0.50
2023-05-10T04:46:17.970Z,0.50
2023-05-10T04:47:22.303Z,0.75
2023-05-10T04:48:26.577Z,0.25
2023-05-10T04:49:31.009Z,0.00
2023-05-10T04:50:35.163Z,0.50
2023-05-10T04:51:39.311Z,0.25
2023-05-10T04:52:43.615Z,0.75
2023-05-10T04:54:01.593Z,0.25
2023-05-10T04:54:52.946Z,0.50
2023-05-10T04:55:56.941Z,0.00
2023-05-10T04:57:01.248Z,0.00
2023-05-10T04:58:05.731Z,0.00
2023-05-10T04:59:10.175Z,0.25
2023-05-10T05:00:14.319Z,0.00
2023-05-10T05:01:18.609Z,0.50
2023-05-10T05:02:23.192Z,0.25
2023-05-10T05:03:27.597Z,0.00
2023-05-10T05:04:32.057Z,0.50
2023-05-10T05:05:36.211Z,0.00
2023-05-10T05:06:40.545Z,0.25
2023-05-10T05:07:44.948Z,0.50
2023-05-10T05:08:49.341Z,0.00
2023-05-10T05:09:53.685Z,0.50
2023-05-10T05:10:58.193Z,0.25
2023-05-10T05:12:02.512Z,0.00
2023-05-10T05:13:06.549Z,0.50
2023-05-10T05:14:10.455Z,0.50
2023-05-10T05:15:14.597Z,0.25
2023-05-10T05:16:18.836Z,0.50
2023-05-10T05:17:23.114Z,0.50
2023-05-10T05:18:27.336Z,1.00
2023-05-10T05:19:31.319Z,0.75
2023-05-10T05:20:35.620Z,0.75
2023-05-10T05:21:39.550Z,1.00
2023-05-10T05:22:43.452Z,1.00
2023-05-10T05:23:47.525Z,0.25
2023-05-10T05:24:51.958Z,0.50
2023-05-10T05:25:56.141Z,0.00
2023-05-10T05:27:00.250Z,0.50
2023-05-10T05:28:04.252Z,0.00
2023-05-10T05:29:08.289Z,0.00
2023-05-10T05:30:12.218Z,0.50
2023-05-10T05:31:16.528Z,0.25
2023-05-10T05:32:20.574Z,0.50
2023-05-10T05:33:24.758Z,0.75
2023-05-10T05:34:29.384Z,0.50
2023-05-10T05:35:33.477Z,0.00
2023-05-10T05:36:37.756Z,0.50
2023-05-10T05:37:42.306Z,0.50
2023-05-10T05:38:46.517Z,0.25
2023-05-10T05:39:50.787Z,0.00
2023-05-10T05:40:55.023Z,1.00
2023-05-10T05:41:59.122Z,1.00
2023-05-10T05:43:03.229Z,0.00
2023-05-10T05:44:07.437Z,0.00
2023-05-10T05:45:11.637Z,0.00
2023-05-10T05:46:15.877Z,0.50
2023-05-10T05:47:20.054Z,0.25
2023-05-10T05:48:24.157Z,0.00
2023-05-10T05:49:28.373Z,0.25
2023-05-10T05:50:32.465Z,0.00
2023-05-10T05:51:36.579Z,0.00
2023-05-10T05:52:40.469Z,0.00
2023-05-10T05:53:44.671Z,0.00
2023-05-10T05:54:48.830Z,0.00
2023-05-10T05:55:52.769Z,0.00
2023-05-10T05:56:57.326Z,0.00
2023-05-10T05:58:02.111Z,0.00
2023-05-10T05:59:06.215Z,0.50
2023-05-10T06:00:10.233Z,0.25
2023-05-10T06:01:14.218Z,0.25
2023-05-10T06:02:18.263Z,0.50
2023-05-10T06:03:22.500Z,0.50
2023-05-10T06:04:26.725Z,0.50
2023-05-10T06:05:30.940Z,0.50
2023-05-10T06:06:35.246Z,0.00
2023-05-10T06:07:39.524Z,0.00
2023-05-10T06:08:43.767Z,1.00
2023-05-10T06:09:47.891Z,1.00
2023-05-10T06:10:51.967Z,0.50
2023-05-10T06:11:56.066Z,1.00
2023-05-10T06:13:00.437Z,0.75
2023-05-10T06:14:04.483Z,0.25
2023-05-10T06:15:08.720Z,1.00
2023-05-10T06:16:12.968Z,0.00
2023-05-10T06:17:17.209Z,0.50
2023-05-10T06:18:24.275Z,0.50
2023-05-10T06:19:28.476Z,0.50
2023-05-10T06:20:32.831Z,0.50
2023-05-10T06:21:37.304Z,0.00
2023-05-10T06:22:41.617Z,0.50
2023-05-10T06:23:45.925Z,0.50
2023-05-10T06:24:50.043Z,0.25
2023-05-10T06:25:54.209Z,0.00
2023-05-10T06:26:58.433Z,0.50
2023-05-10T06:28:02.743Z,1.00
2023-05-10T06:29:07.023Z,0.00
2023-05-10T06:30:13.343Z,1.00
2023-05-10T06:31:17.034Z,1.00
2023-05-10T06:32:21.201Z,0.25
2023-05-10T06:33:25.624Z,0.00
2023-05-10T06:34:29.897Z,0.50
2023-05-10T06:35:33.871Z,0.50
2023-05-10T06:36:37.989Z,0.50
2023-05-10T06:37:42.150Z,1.00
2023-05-10T06:38:46.200Z,0.50
2023-05-10T06:39:50.449Z,1.00
2023-05-10T06:40:54.509Z,0.50
2023-05-10T06:41:58.645Z,0.00
2023-05-10T06:43:03.078Z,0.00
2023-05-10T06:44:07.371Z,0.00
2023-05-10T06:45:11.374Z,0.50
2023-05-10T06:46:15.513Z,0.50
2023-05-10T06:47:19.612Z,0.25
2023-05-10T06:48:23.636Z,0.00
2023-05-10T06:49:27.786Z,0.00
2023-05-10T06:50:31.977Z,0.25
2023-05-10T06:51:35.860Z,0.25
2023-05-10T06:52:39.994Z,0.50
2023-05-10T06:53:43.989Z,0.00
2023-05-10T06:54:48.195Z,0.00
2023-05-10T06:55:52.503Z,0.50
2023-05-10T06:56:56.729Z,0.50
2023-05-10T06:58:01.025Z,0.50
2023-05-10T06:59:05.452Z,0.50
2023-05-10T07:00:10.091Z,2.00
2023-05-10T07:01:14.771Z,1.00
2023-05-10T07:02:19.366Z,0.75
2023-05-10T07:03:23.753Z,0.50
2023-05-10T07:04:28.106Z,0.25
2023-05-10T07:05:32.350Z,0.50
2023-05-10T07:06:36.408Z,0.00
2023-05-10T07:07:40.634Z,1.00
2023-05-10T07:08:44.922Z,1.00
2023-05-10T07:09:49.130Z,1.00
2023-05-10T07:10:53.847Z,1.00
2023-05-10T07:11:58.054Z,0.75
2023-05-10T07:13:02.458Z,0.00
2023-05-10T07:14:06.776Z,0.00
2023-05-10T07:15:11.281Z,0.25
2023-05-10T07:16:15.727Z,1.00
2023-05-10T07:17:20.142Z,0.50
2023-05-10T07:18:24.558Z,0.25
2023-05-10T07:19:28.922Z,0.00
2023-05-10T07:20:33.311Z,0.50
2023-05-10T07:21:37.584Z,1.00
2023-05-10T07:22:42.159Z,0.50
2023-05-10T07:23:46.389Z,0.25
2023-05-10T07:24:50.701Z,0.25
2023-05-10T07:25:55.090Z,1.00
2023-05-10T07:26:59.409Z,1.00
2023-05-10T07:28:03.597Z,0.50
2023-05-10T07:29:08.321Z,0.00
2023-05-10T07:30:12.415Z,0.00
2023-05-10T07:31:16.487Z,1.00
2023-05-10T07:32:20.691Z,1.50
2023-05-10T07:33:24.861Z,1.25
2023-05-10T07:34:28.934Z,0.50
2023-05-10T07:35:32.867Z,0.50
2023-05-10T07:36:36.835Z,1.00
2023-05-10T07:37:41.034Z,0.75
2023-05-10T07:38:45.040Z,0.00
2023-05-10T07:39:49.349Z,0.50
2023-05-10T07:40:53.660Z,0.50
2023-05-10T07:41:58.079Z,1.00
2023-05-10T07:43:02.475Z,1.00
2023-05-10T07:44:06.976Z,1.00
2023-05-10T07:45:11.197Z,0.50
2023-05-10T07:46:15.644Z,0.50
2023-05-10T07:47:19.940Z,0.00
2023-05-10T07:48:24.544Z,0.50
2023-05-10T07:49:28.831Z,1.00
2023-05-10T07:50:32.728Z,0.50
2023-05-10T07:51:37.152Z,0.50
2023-05-10T07:52:41.224Z,0.50
2023-05-10T07:53:45.268Z,0.00
2023-05-10T07:54:49.657Z,1.25
2023-05-10T07:55:53.766Z,1.25
2023-05-10T07:56:58.292Z,0.50
2023-05-10T07:58:02.595Z,1.00
2023-05-10T07:59:06.901Z,1.25
2023-05-10T08:00:10.897Z,1.00
2023-05-10T08:01:15.099Z,0.75
2023-05-10T08:02:19.124Z,0.25
2023-05-10T08:03:23.481Z,1.25
2023-05-10T08:04:27.707Z,1.50
2023-05-10T08:05:32.035Z,0.75
2023-05-10T08:06:36.848Z,1.00
2023-05-10T08:07:40.863Z,1.00
2023-05-10T08:08:44.856Z,0.50
2023-05-10T08:09:48.866Z,1.00
2023-05-10T08:10:52.869Z,0.50
2023-05-10T08:11:57.064Z,0.75
2023-05-10T08:13:01.260Z,1.00
2023-05-10T08:14:05.447Z,1.00
2023-05-10T08:15:09.679Z,0.00
2023-05-10T08:16:14.093Z,0.75
2023-05-10T08:17:22.756Z,0.50
2023-05-10T08:18:26.722Z,1.00
2023-05-10T08:19:30.657Z,1.00
2023-05-10T08:20:34.796Z,0.25
2023-05-10T08:21:39.107Z,1.00
2023-05-10T08:22:43.209Z,1.50
2023-05-10T08:23:47.244Z,1.50
2023-05-10T08:24:51.316Z,1.50
2023-05-10T08:25:55.280Z,0.50
2023-05-10T08:26:59.421Z,1.00
2023-05-10T08:28:03.524Z,0.75
2023-05-10T08:29:07.954Z,1.00
2023-05-10T08:30:12.110Z,1.00
2023-05-10T08:31:16.285Z,0.25
2023-05-10T08:32:20.600Z,0.50
2023-05-10T08:33:24.678Z,1.00
2023-05-10T08:34:36.106Z,0.75
2023-05-10T08:35:40.127Z,1.00
2023-05-10T08:36:44.338Z,1.00
2023-05-10T08:37:48.551Z,1.25
2023-05-10T08:38:52.766Z,1.75
2023-05-10T08:39:57.058Z,0.50
2023-05-10T08:41:01.034Z,0.50
2023-05-10T08:42:05.618Z,1.75
2023-05-10T08:43:10.302Z,2.00
2023-05-10T08:44:14.597Z,2.00
2023-05-10T08:45:19.152Z,2.00
2023-05-10T08:46:23.686Z,1.50
2023-05-10T08:47:28.175Z,1.50
2023-05-10T08:48:32.304Z,2.25
2023-05-10T08:49:36.620Z,1.50
2023-05-10T08:50:40.928Z,1.50
2023-05-10T08:51:45.289Z,2.50
2023-05-10T08:52:49.580Z,3.50
2023-05-10T08:53:53.914Z,4.00
2023-05-10T08:54:58.303Z,4.00
2023-05-10T08:56:02.221Z,4.00
2023-05-10T08:57:07.536Z,1.50
2023-05-10T08:58:11.739Z,2.50
2023-05-10T08:59:15.806Z,3.00
2023-05-10T09:00:20.287Z,3.25
2023-05-10T09:01:24.770Z,1.75
2023-05-10T09:02:29.010Z,2.00
2023-05-10T09:03:33.289Z,2.25
2023-05-10T09:04:37.772Z,2.50
2023-05-10T09:05:42.064Z,3.25
2023-05-10T09:06:46.402Z,3.00
2023-05-10T09:07:50.827Z,2.50
2023-05-10T09:08:54.822Z,1.25
2023-05-10T09:09:59.124Z,2.00
2023-05-10T09:11:03.086Z,2.00
2023-05-10T09:12:07.132Z,3.00
2023-05-10T09:13:11.231Z,2.75
2023-05-10T09:14:15.332Z,2.00
2023-05-10T09:15:19.556Z,1.50
2023-05-10T09:16:23.947Z,1.00
2023-05-10T09:17:27.982Z,1.00
2023-05-10T09:18:32.071Z,1.50
2023-05-10T09:19:36.387Z,2.00
2023-05-10T09:20:40.472Z,1.50
2023-05-10T09:21:44.576Z,1.50
2023-05-10T09:22:48.877Z,2.00
2023-05-10T09:23:52.953Z,1.50
2023-05-10T09:24:57.092Z,1.00
2023-05-10T09:26:01.174Z,1.50
2023-05-10T09:27:05.053Z,1.00
2023-05-10T09:28:09.084Z,1.00
2023-05-10T09:29:14.194Z,2.25
2023-05-10T09:30:18.353Z,2.50
2023-05-10T09:31:23.236Z,3.00
2023-05-10T09:32:27.709Z,1.50
2023-05-10T09:33:32.082Z,1.00
2023-05-10T09:34:36.339Z,1.00
2023-05-10T09:35:40.577Z,1.75
2023-05-10T09:36:44.887Z,1.75
2023-05-10T09:37:49.192Z,2.00
2023-05-10T09:38:53.306Z,2.00
2023-05-10T09:39:57.504Z,2.00
2023-05-10T09:41:01.812Z,2.25
2023-05-10T09:42:06.217Z,1.00
2023-05-10T09:43:10.633Z,2.00
2023-05-10T09:44:15.043Z,2.50
2023-05-10T09:45:19.381Z,3.25
2023-05-10T09:46:23.813Z,3.00
2023-05-10T09:47:28.226Z,2.25
2023-05-10T09:48:32.582Z,2.00
2023-05-10T09:49:36.892Z,1.25
2023-05-10T09:50:41.197Z,2.25
2023-05-10T09:51:45.406Z,3.50
2023-05-10T09:52:49.527Z,2.75
2023-05-10T09:53:53.715Z,2.25
2023-05-10T09:54:58.132Z,3.00
2023-05-10T09:56:02.430Z,3.50
2023-05-10T09:57:06.637Z,3.50
2023-05-10T09:58:10.859Z,2.25
2023-05-10T09:59:15.046Z,2.00
2023-05-10T10:00:19.261Z,3.00
2023-05-10T10:01:23.519Z,2.00
2023-05-10T10:02:27.471Z,2.25
2023-05-10T10:03:31.566Z,2.50
2023-05-10T10:04:35.701Z,2.00
2023-05-10T10:05:39.778Z,2.00
2023-05-10T10:06:43.987Z,2.75
2023-05-10T10:07:47.969Z,3.00
2023-05-10T10:08:52.086Z,2.25
2023-05-10T10:09:56.088Z,2.50
2023-05-10T10:10:59.983Z,1.75
2023-05-10T10:12:04.093Z,2.50
2023-05-10T10:13:08.300Z,2.00
2023-05-10T10:14:12.312Z,2.50
2023-05-10T10:15:16.949Z,3.00
2023-05-10T10:16:21.256Z,2.50
2023-05-10T10:17:25.366Z,2.50
2023-05-10T10:18:29.435Z,2.50
2023-05-10T10:19:33.531Z,2.50
2023-05-10T10:20:37.544Z,3.00
2023-05-10T10:21:41.637Z,3.50
2023-05-10T10:22:45.511Z,3.50
2023-05-10T10:23:50.730Z,4.00
2023-05-10T10:24:54.973Z,2.75
2023-05-10T10:25:59.177Z,2.50
2023-05-10T10:27:03.391Z,4.50
2023-05-10T10:28:07.356Z,4.00
2023-05-10T10:29:11.380Z,3.00
2023-05-10T10:30:15.506Z,4.25
2023-05-10T10:31:19.552Z,4.50
2023-05-10T10:32:23.477Z,5.00
2023-05-10T10:33:28.889Z,5.50
2023-05-10T10:34:32.578Z,6.00
2023-05-10T10:35:36.824Z,5.00
2023-05-10T10:36:40.804Z,4.50
2023-05-10T10:37:44.828Z,4.50
2023-05-10T10:38:49.142Z,4.50
2023-05-10T10:39:53.275Z,4.50
2023-05-10T10:40:57.247Z,4.75
2023-05-10T10:42:01.446Z,4.50
2023-05-10T10:43:05.651Z,4.50
2023-05-10T10:44:09.658Z,4.00
2023-05-10T10:45:14.196Z,4.50
2023-05-10T10:46:18.716Z,4.00
2023-05-10T10:47:23.121Z,4.50
2023-05-10T10:48:27.295Z,3.50
2023-05-10T10:49:31.495Z,4.50
2023-05-10T10:50:36.036Z,4.00
2023-05-10T10:51:40.016Z,4.00
2023-05-10T10:52:44.421Z,2.75
2023-05-10T10:53:48.736Z,2.75
2023-05-10T10:54:52.909Z,3.25
2023-05-10T10:55:57.040Z,4.00
2023-05-10T10:57:01.146Z,4.50
2023-05-10T10:58:05.667Z,5.00
2023-05-10T10:59:09.668Z,5.25
2023-05-10T11:00:13.866Z,5.00
2023-05-10T11:01:18.389Z,4.00
2023-05-10T11:02:22.722Z,5.50
2023-05-10T11:03:27.122Z,5.50
2023-05-10T11:04:31.575Z,4.25
2023-05-10T11:05:35.791Z,4.75
2023-05-10T11:06:40.122Z,5.00
2023-05-10T11:07:44.470Z,5.50
2023-05-10T11:08:48.635Z,5.50
2023-05-10T11:09:52.641Z,6.75
2023-05-10T11:10:56.842Z,4.50
2023-05-10T11:12:00.966Z,5.25
2023-05-10T11:13:05.288Z,6.50
2023-05-10T11:14:09.178Z,5.50
2023-05-10T11:15:13.265Z,4.75
2023-05-10T11:16:17.455Z,5.50
2023-05-10T11:17:21.610Z,5.50
2023-05-10T11:18:25.602Z,5.25
2023-05-10T11:19:29.446Z,5.25
2023-05-10T11:20:33.334Z,6.00
2023-05-10T11:21:37.467Z,5.50
2023-05-10T11:22:41.569Z,4.00
2023-05-10T11:23:45.571Z,5.00
2023-05-10T11:24:50.237Z,4.50
2023-05-10T11:25:54.287Z,6.25
2023-05-10T11:26:58.392Z,5.00
2023-05-10T11:28:02.496Z,4.75
2023-05-10T11:29:06.704Z,5.00
2023-05-10T11:30:10.705Z,5.25
2023-05-10T11:31:14.731Z,4.50
2023-05-10T11:32:18.598Z,5.50
2023-05-10T11:33:22.514Z,7.50
2023-05-10T11:34:26.612Z,7.00
2023-05-10T11:35:30.720Z,7.50
2023-05-10T11:36:34.921Z,9.00
2023-05-10T11:37:39.221Z,8.00
2023-05-10T11:38:43.330Z,8.00
2023-05-10T11:39:47.532Z,7.25
2023-05-10T11:40:51.610Z,6.50
2023-05-10T11:41:55.886Z,6.00
2023-05-10T11:43:00.151Z,5.25
2023-05-10T11:44:04.355Z,5.25
2023-05-10T11:45:08.448Z,4.50
2023-05-10T11:46:12.721Z,4.50
2023-05-10T11:47:16.995Z,4.00
2023-05-10T11:48:21.184Z,4.00
2023-05-10T11:49:25.488Z,4.25
2023-05-10T11:50:29.803Z,4.00
2023-05-10T11:51:34.110Z,4.00
2023-05-10T11:52:38.418Z,4.00
2023-05-10T11:53:42.731Z,4.50
2023-05-10T11:54:47.028Z,4.25
2023-05-10T11:55:51.253Z,4.50
2023-05-10T11:56:55.423Z,5.00
2023-05-10T11:57:59.562Z,4.75
2023-05-10T11:59:03.652Z,4.75
2023-05-10T12:00:07.661Z,5.00
2023-05-10T12:01:11.857Z,4.50
2023-05-10T12:02:16.097Z,4.50
2023-05-10T12:03:20.104Z,4.00
2023-05-10T12:04:24.203Z,3.25
2023-05-10T12:05:28.068Z,3.50
2023-05-10T12:06:32.302Z,4.00
2023-05-10T12:07:36.340Z,3.50
2023-05-10T12:08:40.375Z,4.25
2023-05-10T12:09:44.567Z,3.75
2023-05-10T12:10:48.579Z,3.00
2023-05-10T12:11:52.587Z,5.25
2023-05-10T12:12:56.691Z,6.00
2023-05-10T12:14:00.909Z,4.50
2023-05-10T12:15:05.094Z,3.00
2023-05-10T12:16:09.014Z,4.25
2023-05-10T12:17:13.098Z,4.25
2023-05-10T12:18:17.331Z,4.00
2023-05-10T12:19:21.428Z,4.50
2023-05-10T12:20:25.487Z,4.50
2023-05-10T12:21:29.711Z,4.50
2023-05-10T12:22:34.031Z,5.00
2023-05-10T12:23:38.336Z,4.50
2023-05-10T12:24:42.550Z,5.50
2023-05-10T12:25:46.849Z,6.00
2023-05-10T12:26:51.061Z,6.00
2023-05-10T12:27:55.264Z,5.50
2023-05-10T12:28:59.564Z,5.50
2023-05-10T12:30:03.688Z,4.75
2023-05-10T12:31:08.003Z,4.50
2023-05-10T12:32:12.454Z,4.50
2023-05-10T12:33:16.557Z,5.00
2023-05-10T12:34:20.699Z,5.25
2023-05-10T12:35:28.200Z,6.00
2023-05-10T12:36:32.292Z,5.50
2023-05-10T12:37:36.286Z,6.00
2023-05-10T12:38:40.292Z,6.00
2023-05-10T12:39:44.294Z,5.00
2023-05-10T12:40:48.309Z,4.25
2023-05-10T12:41:52.198Z,5.50
2023-05-10T12:42:56.150Z,4.50
2023-05-10T12:44:00.444Z,5.50
2023-05-10T12:45:04.431Z,6.00
2023-05-10T12:46:08.497Z,5.50
2023-05-10T12:47:12.433Z,6.25
2023-05-10T12:48:16.401Z,6.50
2023-05-10T12:49:20.508Z,6.50
2023-05-10T12:50:24.516Z,5.50
2023-05-10T12:51:28.609Z,5.00
2023-05-10T12:52:32.613Z,4.50
2023-05-10T12:53:36.616Z,5.50
2023-05-10T12:54:40.614Z,6.50
2023-05-10T12:55:44.731Z,5.50
2023-05-10T12:56:48.822Z,5.00
2023-05-10T12:57:52.730Z,5.00
2023-05-10T12:58:56.720Z,5.00
2023-05-10T13:00:00.838Z,5.75
2023-05-10T13:01:04.851Z,6.50
2023-05-10T13:02:08.719Z,6.75
2023-05-10T13:03:12.828Z,5.50
2023-05-10T13:04:16.824Z,6.00
2023-05-10T13:05:20.937Z,6.25
2023-05-10T13:06:25.032Z,5.00
2023-05-10T13:07:29.034Z,6.00
2023-05-10T13:08:33.046Z,6.00
2023-05-10T13:09:37.254Z,6.00
2023-05-10T13:10:41.339Z,6.00
2023-05-10T13:11:45.560Z,6.75
2023-05-10T13:12:49.558Z,6.75
2023-05-10T13:13:53.617Z,6.00
2023-05-10T13:14:57.580Z,6.50
2023-05-10T13:16:01.556Z,6.00
2023-05-10T13:17:13.901Z,7.00
2023-05-10T13:18:18.270Z,6.25
2023-05-10T13:19:22.568Z,6.00
2023-05-10T13:20:26.878Z,6.50
2023-05-10T13:21:31.082Z,7.00
2023-05-10T13:22:40.246Z,7.00
2023-05-10T13:23:40.630Z,7.00
2023-05-10T13:24:44.739Z,7.00
2023-05-10T13:25:49.037Z,6.00
2023-05-10T13:26:53.010Z,6.75
2023-05-10T13:27:57.135Z,6.75
2023-05-10T13:29:01.460Z,6.50
2023-05-10T13:30:08.046Z,7.00
2023-05-10T13:31:12.355Z,8.00
2023-05-10T13:32:16.618Z,8.00
2023-05-10T13:33:21.150Z,8.00
2023-05-10T13:34:25.376Z,7.00
2023-05-10T13:35:29.694Z,7.50
2023-05-10T13:36:33.859Z,8.00
2023-05-10T13:37:38.212Z,8.00
2023-05-10T13:38:42.580Z,8.25
2023-05-10T13:39:46.783Z,7.00
2023-05-10T13:40:51.093Z,6.00
2023-05-10T13:41:55.791Z,7.00
2023-05-10T13:42:59.817Z,6.50
2023-05-10T13:44:03.915Z,6.75
2023-05-10T13:45:07.794Z,7.50
2023-05-10T13:46:11.832Z,7.00
2023-05-10T13:47:15.918Z,7.75
2023-05-10T13:48:19.820Z,7.00
2023-05-10T13:49:23.813Z,6.75
2023-05-10T13:50:27.698Z,6.75
2023-05-10T13:51:31.715Z,6.25
2023-05-10T13:52:35.656Z,7.00
2023-05-10T13:53:39.618Z,6.50
2023-05-10T13:54:43.621Z,6.75
2023-05-10T13:55:47.826Z,7.25
2023-05-10T13:56:52.133Z,8.50
2023-05-10T13:57:56.337Z,7.50
2023-05-10T13:59:00.453Z,6.75
2023-05-10T14:00:04.756Z,6.50
2023-05-10T14:01:09.063Z,7.50
2023-05-10T14:02:13.516Z,7.50
2023-05-10T14:03:18.048Z,6.75
2023-05-10T14:04:22.393Z,7.50
2023-05-10T14:05:27.032Z,7.00
2023-05-10T14:06:31.422Z,7.00
2023-05-10T14:07:35.734Z,6.00
2023-05-10T14:08:42.406Z,7.50
2023-05-10T14:09:46.503Z,6.50
2023-05-10T14:10:50.486Z,5.50
2023-05-10T14:11:54.496Z,5.50
2023-05-10T14:12:58.601Z,6.25
2023-05-10T14:14:02.496Z,5.75